Taurus — WDB5562 — position and weather

sailwx.info

Track history (hours):
 
Tides and Currents Weather Stations Pressure Air Temp Water Temp Dewpoint Dewpoint Depression Visibility Wind Speed Wind Dir Waves Ship Positions

Taurus

Owner: Kirby Offshore Marine, LLC, Staten Island, NY. More information available from US FCC via Universal Licensing System and Coast Guard Vessel Documentation Center.

Last reported at 2015-Aug-01 17:31 UTC. Time now 2015-Aug-01 18:19 UTC.
Position N 40°34' W 074°13'.

Length 24 m.

Type: Tug. MMSI: 366910990.

Date/timePositionNaut miles runAvg speedWind from/ knotsBaromVisibWave heightAir tempDewpointWater temp
2015-Aug-01 17:31N 40°34' W 074°13'6 6.3
2015-Aug-01 16:34N 40°39' W 074°07'0 0.0
2015-Aug-01 15:33N 40°39' W 074°07'0 0.0
2015-Aug-01 14:33N 40°39' W 074°07'0 0.0
2015-Aug-01 13:34N 40°39' W 074°07'2 2.2
2015-Aug-01 12:33N 40°38' W 074°10'6 4.4
2015-Aug-01 11:15N 40°34' W 074°14'0 0.0
2015-Aug-01 10:28N 40°34' W 074°14'0 0.0
2015-Aug-01 09:32N 40°34' W 074°14'0 0.0
2015-Aug-01 08:33N 40°34' W 074°14'0 0.0
2015-Aug-01 07:33N 40°34' W 074°14'0 0.0
2015-Aug-01 06:33N 40°34' W 074°14'0 0.0
2015-Aug-01 05:34N 40°34' W 074°14'0 0.0
2015-Aug-01 04:31N 40°34' W 074°14'2 1.4
2015-Aug-01 03:24N 40°32' W 074°15'5 2.9
2015-Aug-01 01:33N 40°37' W 074°12'6 6.3
2015-Aug-01 00:34N 40°39' W 074°04'2 2.2
2015-Jul-31 23:34N 40°39' W 074°07'0 0.0
2015-Jul-31 22:34N 40°39' W 074°07'1 1.2
2015-Jul-31 21:33N 40°38' W 074°09'1 1.0
2015-Jul-31 20:33N 40°39' W 074°10'0 0.0
2015-Jul-31 19:33N 40°39' W 074°10'0 0.0
2015-Jul-31 18:34N 40°39' W 074°10'0 0.0
2015-Jul-31 17:33N 40°39' W 074°10'0 0.0
2015-Jul-31 16:33N 40°39' W 074°10'0 0.0
2015-Jul-31 15:34N 40°39' W 074°10'0 0.0
2015-Jul-31 14:31N 40°39' W 074°10'0 0.0
2015-Jul-31 13:33N 40°39' W 074°10'0 0.0
2015-Jul-31 12:33N 40°39' W 074°10'0 0.0
2015-Jul-31 11:34N 40°39' W 074°10'0 0.0
2015-Jul-31 10:33N 40°39' W 074°10'0 0.0
2015-Jul-31 09:33N 40°39' W 074°10'4 3.9
2015-Jul-31 08:34N 40°39' W 074°05'3 2.9
2015-Jul-31 07:34N 40°41' W 074°02'9 8.9
2015-Jul-31 06:33N 40°48' W 073°55'6 6.0
2015-Jul-31 05:34N 40°49' W 073°47'7 6.5
2015-Jul-31 04:33N 40°54' W 073°41'7 6.5
2015-Jul-31 03:33N 40°57' W 073°34'6 6.5
2015-Jul-31 02:33N 40°60' W 073°26'7 6.8
2015-Jul-31 01:34N 41°03' W 073°18'7 7.0
2015-Jul-31 00:34N 41°05' W 073°09'8 7.7
2015-Jul-30 23:34N 41°10' W 073°01'7 6.8
2015-Jul-30 22:33N 41°15' W 072°55'3 2.6
2015-Jul-30 21:33N 41°18' W 072°54'0 0.0
2015-Jul-30 20:32N 41°18' W 072°54'0 0.0
2015-Jul-30 19:33N 41°18' W 072°54'0 0.0
2015-Jul-30 18:31N 41°18' W 072°54'0 0.0
2015-Jul-30 17:29N 41°18' W 072°54'0 0.0
2015-Jul-30 11:25N 41°18' W 072°54'0 0.1
2015-Jul-30 10:25N 41°18' W 072°54'5 5.7
2015-Jul-30 09:34N 41°13' W 072°56'2 1.6
2015-Jul-30 08:34N 41°13' W 072°58'0 0.0
2015-Jul-30 07:34N 41°13' W 072°58'0 0.0
2015-Jul-30 06:34N 41°13' W 072°58'0 0.0
2015-Jul-30 05:34N 41°13' W 072°58'0 0.0
2015-Jul-30 04:34N 41°13' W 072°58'0 0.0
2015-Jul-30 03:33N 41°13' W 072°58'3 3.1
2015-Jul-30 02:34N 41°10' W 073°00'7 6.7
2015-Jul-30 01:34N 41°06' W 073°07'6 6.4
2015-Jul-30 00:33N 41°03' W 073°15'6 6.2
2015-Jul-29 23:33N 41°01' W 073°22'20 6.6
2015-Jul-29 20:32N 40°51' W 073°45'6 6.4
2015-Jul-29 19:33N 40°48' W 073°52'5 5.3
2015-Jul-29 18:33N 40°45' W 073°58'4 4.5
2015-Jul-29 17:34N 40°41' W 074°01'6 5.8
2015-Jul-29 16:34N 40°39' W 074°08'4 4.3
2015-Jul-29 15:33N 40°36' W 074°12'4 3.6
2015-Jul-29 14:32N 40°33' W 074°15'0 0.0
2015-Jul-29 13:31N 40°33' W 074°15'0 0.0
2015-Jul-29 12:34N 40°33' W 074°15'0 0.0
2015-Jul-29 11:33N 40°33' W 074°15'0 0.3
2015-Jul-29 10:33N 40°32' W 074°15'0 0.0
2015-Jul-29 09:33N 40°32' W 074°15'0 0.0
2015-Jul-29 08:33N 40°32' W 074°15'0 0.0
2015-Jul-29 07:33N 40°32' W 074°15'0 0.0
2015-Jul-29 06:34N 40°32' W 074°15'0 0.0
2015-Jul-29 05:31N 40°32' W 074°15'0 0.3
2015-Jul-29 04:33N 40°33' W 074°15'5 4.6
2015-Jul-29 03:33N 40°37' W 074°12'6 5.9
2015-Jul-29 02:34N 40°39' W 074°05'1 1.4
2015-Jul-29 01:33N 40°39' W 074°07'0 0.0
2015-Jul-29 00:33N 40°39' W 074°07'0 0.0
2015-Jul-28 23:33N 40°39' W 074°07'1 1.4
2015-Jul-28 22:34N 40°38' W 074°09'1 0.8
2015-Jul-28 21:34N 40°39' W 074°10'0 0.0
2015-Jul-28 20:33N 40°39' W 074°10'0 0.3
2015-Jul-28 19:33N 40°39' W 074°10'0 0.4
2015-Jul-28 18:34N 40°39' W 074°11'3 2.8
2015-Jul-28 17:34N 40°39' W 074°07'0 0.0
2015-Jul-28 16:33N 40°39' W 074°07'0 0.0
2015-Jul-28 15:33N 40°39' W 074°07'0 0.0
2015-Jul-28 14:33N 40°39' W 074°07'0 0.0
2015-Jul-28 13:34N 40°39' W 074°07'0 0.0
2015-Jul-28 12:34N 40°39' W 074°07'0 0.0
2015-Jul-28 11:34N 40°39' W 074°07'0 0.0
2015-Jul-28 10:33N 40°39' W 074°07'0 0.0
2015-Jul-28 09:34N 40°39' W 074°07'0 0.0
2015-Jul-28 08:34N 40°39' W 074°07'0 0.0
2015-Jul-28 07:33N 40°39' W 074°07'0 0.0
2015-Jul-28 06:33N 40°39' W 074°07'2 2.2
2015-Jul-28 05:34N 40°39' W 074°04'2 2.2
2015-Jul-28 04:33N 40°39' W 074°07'0 0.0
2015-Jul-28 03:33N 40°39' W 074°07'0 0.0
2015-Jul-28 02:33N 40°39' W 074°07'0 0.0
2015-Jul-28 01:33N 40°39' W 074°07'0 0.0
2015-Jul-28 00:34N 40°39' W 074°07'0 0.0
2015-Jul-27 23:34N 40°39' W 074°07'2 2.0
2015-Jul-27 22:29N 40°39' W 074°10'0 0.0
2015-Jul-27 21:34N 40°39' W 074°10'0 0.0
2015-Jul-27 20:34N 40°39' W 074°10'0 0.0
2015-Jul-27 19:34N 40°39' W 074°10'0 0.0
2015-Jul-27 18:33N 40°39' W 074°10'0 0.0
2015-Jul-27 17:32N 40°39' W 074°10'2 2.2
2015-Jul-27 16:33N 40°39' W 074°07'0 0.0
2015-Jul-27 15:33N 40°39' W 074°07'0 0.0
2015-Jul-27 14:27N 40°39' W 074°07'0 0.0
2015-Jul-27 13:32N 40°39' W 074°07'0 0.0
2015-Jul-27 12:31N 40°39' W 074°07'0 0.0
2015-Jul-27 10:29N 40°39' W 074°07'0 0.0
2015-Jul-27 09:04N 40°39' W 074°07'0 0.0
2015-Jul-27 07:14N 40°39' W 074°07'0 0.0
2015-Jul-27 06:30N 40°39' W 074°07'3 3.6
2015-Jul-27 05:33N 40°40' W 074°03'7 7.0
2015-Jul-27 04:33N 40°46' W 073°57'7 7.1
2015-Jul-27 03:32N 40°48' W 073°48'15 0.8
2015-Jul-26 07:21N 40°56' W 073°30'19 6.6
2015-Jul-26 04:29N 40°48' W 073°53'6 6.1
2015-Jul-26 03:33N 40°44' W 073°58'5 5.3
2015-Jul-26 02:33N 40°40' W 074°03'6 6.1
2015-Jul-26 01:33N 40°39' W 074°11'4 3.9
2015-Jul-26 00:33N 40°35' W 074°13'2 1.0
2015-Jul-25 22:33N 40°37' W 074°12'6 6.4
2015-Jul-25 21:33N 40°42' W 074°07'2 1.8
2015-Jul-25 20:33N 40°41' W 074°08'3 3.2
2015-Jul-25 19:33N 40°39' W 074°04'0 0.0
2015-Jul-25 18:33N 40°39' W 074°04'0 0.0
2015-Jul-25 17:33N 40°39' W 074°04'7 6.7
2015-Jul-25 16:33N 40°36' W 074°12'3 2.9
2015-Jul-25 15:33N 40°34' W 074°14'0 0.0
2015-Jul-25 14:33N 40°34' W 074°14'0 0.0
2015-Jul-25 13:29N 40°34' W 074°14'0 0.0
2015-Jul-25 12:32N 40°34' W 074°14'0 0.0
2015-Jul-25 11:33N 40°34' W 074°14'1 0.5
2015-Jul-25 10:25N 40°33' W 074°15'2 1.9
2015-Jul-25 09:31N 40°34' W 074°13'1 0.8
2015-Jul-25 08:31N 40°35' W 074°12'1 0.8
2015-Jul-25 07:26N 40°36' W 074°12'5 5.2
2015-Jul-25 06:33N 40°39' W 074°07'0 0.1
2015-Jul-25 05:34N 40°39' W 074°07'0 0.0
2015-Jul-25 04:33N 40°39' W 074°07'0 0.0
2015-Jul-25 03:33N 40°39' W 074°07'0 0.0
2015-Jul-25 02:33N 40°39' W 074°07'0 0.0
2015-Jul-25 01:33N 40°39' W 074°07'0 0.0
2015-Jul-25 00:33N 40°39' W 074°07'3 3.3
2015-Jul-24 23:33N 40°39' W 074°11'0 0.5
2015-Jul-24 22:33N 40°38' W 074°12'7 7.2
2015-Jul-24 21:33N 40°40' W 074°03'7 7.2
2015-Jul-24 20:33N 40°46' W 073°57'7 6.4
2015-Jul-24 19:31N 40°48' W 073°49'15 7.2
2015-Jul-24 17:24N 40°58' W 073°33'6 7.4
2015-Jul-24 16:33N 41°01' W 073°26'7 7.4
2015-Jul-24 15:33N 41°04' W 073°17'22 6.6
2015-Jul-24 12:16N 41°17' W 072°55'0 0.2
2015-Jul-24 11:34N 41°18' W 072°54'0 0.0
2015-Jul-24 10:33N 41°18' W 072°54'0 0.0
2015-Jul-24 09:33N 41°18' W 072°54'0 0.0
2015-Jul-24 08:33N 41°18' W 072°54'0 0.0
2015-Jul-24 07:34N 41°18' W 072°54'0 0.0
2015-Jul-24 06:33N 41°18' W 072°54'0 0.0
2015-Jul-24 05:33N 41°18' W 072°54'0 0.0
2015-Jul-24 04:33N 41°18' W 072°54'0 0.0
2015-Jul-24 03:33N 41°18' W 072°54'1 1.2
2015-Jul-24 02:34N 41°16' W 072°55'7 6.6
2015-Jul-24 01:34N 41°11' W 072°60'8 7.8
2015-Jul-24 00:33N 41°06' W 073°08'8 7.7
2015-Jul-23 23:33N 41°04' W 073°18'8 7.7
2015-Jul-23 22:32N 41°01' W 073°27'10 7.2
2015-Jul-23 21:08N 40°56' W 073°39'7 7.2
2015-Jul-23 20:13N 40°51' W 073°45'7 6.1
2015-Jul-23 19:08N 40°48' W 073°53'5 8.2
2015-Jul-23 18:33N 40°45' W 073°58'8 7.6
2015-Jul-23 17:33N 40°39' W 074°04'6 6.3
2015-Jul-23 16:33N 40°38' W 074°12'2 1.5
2015-Jul-23 15:33N 40°37' W 074°12'3 2.7
2015-Jul-23 14:33N 40°39' W 074°10'0 0.0
2015-Jul-23 13:33N 40°39' W 074°10'0 0.0
2015-Jul-23 12:33N 40°39' W 074°10'0 0.0
2015-Jul-23 11:33N 40°39' W 074°10'0 0.0
2015-Jul-23 10:33N 40°39' W 074°10'1 0.5
2015-Jul-23 09:33N 40°39' W 074°10'7 6.3
2015-Jul-23 08:26N 40°33' W 074°15'4 5.0
2015-Jul-23 07:33N 40°36' W 074°12'7 6.9
2015-Jul-23 06:33N 40°39' W 074°04'1 1.1
2015-Jul-23 05:33N 40°39' W 074°06'6 5.6
2015-Jul-23 04:33N 40°37' W 074°12'2 2.1
2015-Jul-23 03:33N 40°39' W 074°11'5 5.4
2015-Jul-23 02:33N 40°39' W 074°04'4 4.1
2015-Jul-23 01:33N 40°42' W 074°00'8 7.4
2015-Jul-23 00:30N 40°48' W 073°53'7 7.1
2015-Jul-22 23:33N 40°43' W 073°59'6 5.9
2015-Jul-22 22:33N 40°49' W 073°59'8 5.7
2015-Jul-22 21:10N 40°56' W 073°54'0 0.0
2015-Jul-22 20:27N 40°56' W 073°54'8 9.0
2015-Jul-22 19:33N 40°48' W 073°59'10 9.8
2015-Jul-22 18:33N 40°39' W 074°04'3 3.3
2015-Jul-22 17:33N 40°39' W 074°08'  
Track history (hours):
 
Tides and Currents Weather Stations Pressure Air Temp Water Temp Dewpoint Dewpoint Depression Visibility Wind Speed Wind Dir Waves Ship Positions

Taurus

Owner: Kirby Offshore Marine, LLC, Staten Island, NY. More information available from US FCC via Universal Licensing System and Coast Guard Vessel Documentation Center.

Last reported at 2015-Aug-01 17:31 UTC. Time now 2015-Aug-01 18:19 UTC.
Position N 40°34' W 074°13'.

Length 24 m.

Type: Tug. MMSI: 366910990.

Date/timePositionNaut miles runAvg speedWind from/ knotsBaromVisibWave heightAir tempDewpointWater temp
2015-Aug-01 17:31N 40°34' W 074°13'6 6.3
2015-Aug-01 16:34N 40°39' W 074°07'0 0.0
2015-Aug-01 15:33N 40°39' W 074°07'0 0.0
2015-Aug-01 14:33N 40°39' W 074°07'0 0.0
2015-Aug-01 13:34N 40°39' W 074°07'2 2.2
2015-Aug-01 12:33N 40°38' W 074°10'6 4.4
2015-Aug-01 11:15N 40°34' W 074°14'0 0.0
2015-Aug-01 10:28N 40°34' W 074°14'0 0.0
2015-Aug-01 09:32N 40°34' W 074°14'0 0.0
2015-Aug-01 08:33N 40°34' W 074°14'0 0.0
2015-Aug-01 07:33N 40°34' W 074°14'0 0.0
2015-Aug-01 06:33N 40°34' W 074°14'0 0.0
2015-Aug-01 05:34N 40°34' W 074°14'0 0.0
2015-Aug-01 04:31N 40°34' W 074°14'2 1.4
2015-Aug-01 03:24N 40°32' W 074°15'5 2.9
2015-Aug-01 01:33N 40°37' W 074°12'6 6.3
2015-Aug-01 00:34N 40°39' W 074°04'2 2.2
2015-Jul-31 23:34N 40°39' W 074°07'0 0.0
2015-Jul-31 22:34N 40°39' W 074°07'1 1.2
2015-Jul-31 21:33N 40°38' W 074°09'1 1.0
2015-Jul-31 20:33N 40°39' W 074°10'0 0.0
2015-Jul-31 19:33N 40°39' W 074°10'0 0.0
2015-Jul-31 18:34N 40°39' W 074°10'0 0.0
2015-Jul-31 17:33N 40°39' W 074°10'0 0.0
2015-Jul-31 16:33N 40°39' W 074°10'0 0.0
2015-Jul-31 15:34N 40°39' W 074°10'0 0.0
2015-Jul-31 14:31N 40°39' W 074°10'0 0.0
2015-Jul-31 13:33N 40°39' W 074°10'0 0.0
2015-Jul-31 12:33N 40°39' W 074°10'0 0.0
2015-Jul-31 11:34N 40°39' W 074°10'0 0.0
2015-Jul-31 10:33N 40°39' W 074°10'0 0.0
2015-Jul-31 09:33N 40°39' W 074°10'4 3.9
2015-Jul-31 08:34N 40°39' W 074°05'3 2.9
2015-Jul-31 07:34N 40°41' W 074°02'9 8.9
2015-Jul-31 06:33N 40°48' W 073°55'6 6.0
2015-Jul-31 05:34N 40°49' W 073°47'7 6.5
2015-Jul-31 04:33N 40°54' W 073°41'7 6.5
2015-Jul-31 03:33N 40°57' W 073°34'6 6.5
2015-Jul-31 02:33N 40°60' W 073°26'7 6.8
2015-Jul-31 01:34N 41°03' W 073°18'7 7.0
2015-Jul-31 00:34N 41°05' W 073°09'8 7.7
2015-Jul-30 23:34N 41°10' W 073°01'7 6.8
2015-Jul-30 22:33N 41°15' W 072°55'3 2.6
2015-Jul-30 21:33N 41°18' W 072°54'0 0.0
2015-Jul-30 20:32N 41°18' W 072°54'0 0.0
2015-Jul-30 19:33N 41°18' W 072°54'0 0.0
2015-Jul-30 18:31N 41°18' W 072°54'0 0.0
2015-Jul-30 17:29N 41°18' W 072°54'0 0.0
2015-Jul-30 11:25N 41°18' W 072°54'0 0.1
2015-Jul-30 10:25N 41°18' W 072°54'5 5.7
2015-Jul-30 09:34N 41°13' W 072°56'2 1.6
2015-Jul-30 08:34N 41°13' W 072°58'0 0.0
2015-Jul-30 07:34N 41°13' W 072°58'0 0.0
2015-Jul-30 06:34N 41°13' W 072°58'0 0.0
2015-Jul-30 05:34N 41°13' W 072°58'0 0.0
2015-Jul-30 04:34N 41°13' W 072°58'0 0.0
2015-Jul-30 03:33N 41°13' W 072°58'3 3.1
2015-Jul-30 02:34N 41°10' W 073°00'7 6.7
2015-Jul-30 01:34N 41°06' W 073°07'6 6.4
2015-Jul-30 00:33N 41°03' W 073°15'6 6.2
2015-Jul-29 23:33N 41°01' W 073°22'20 6.6
2015-Jul-29 20:32N 40°51' W 073°45'6 6.4
2015-Jul-29 19:33N 40°48' W 073°52'5 5.3
2015-Jul-29 18:33N 40°45' W 073°58'4 4.5
2015-Jul-29 17:34N 40°41' W 074°01'6 5.8
2015-Jul-29 16:34N 40°39' W 074°08'4 4.3
2015-Jul-29 15:33N 40°36' W 074°12'4 3.6
2015-Jul-29 14:32N 40°33' W 074°15'0 0.0
2015-Jul-29 13:31N 40°33' W 074°15'0 0.0
2015-Jul-29 12:34N 40°33' W 074°15'0 0.0
2015-Jul-29 11:33N 40°33' W 074°15'0 0.3
2015-Jul-29 10:33N 40°32' W 074°15'0 0.0
2015-Jul-29 09:33N 40°32' W 074°15'0 0.0
2015-Jul-29 08:33N 40°32' W 074°15'0 0.0
2015-Jul-29 07:33N 40°32' W 074°15'0 0.0
2015-Jul-29 06:34N 40°32' W 074°15'0 0.0
2015-Jul-29 05:31N 40°32' W 074°15'0 0.3
2015-Jul-29 04:33N 40°33' W 074°15'5 4.6
2015-Jul-29 03:33N 40°37' W 074°12'6 5.9
2015-Jul-29 02:34N 40°39' W 074°05'1 1.4
2015-Jul-29 01:33N 40°39' W 074°07'0 0.0
2015-Jul-29 00:33N 40°39' W 074°07'0 0.0
2015-Jul-28 23:33N 40°39' W 074°07'1 1.4
2015-Jul-28 22:34N 40°38' W 074°09'1 0.8
2015-Jul-28 21:34N 40°39' W 074°10'0 0.0
2015-Jul-28 20:33N 40°39' W 074°10'0 0.3
2015-Jul-28 19:33N 40°39' W 074°10'0 0.4
2015-Jul-28 18:34N 40°39' W 074°11'3 2.8
2015-Jul-28 17:34N 40°39' W 074°07'0 0.0
2015-Jul-28 16:33N 40°39' W 074°07'0 0.0
2015-Jul-28 15:33N 40°39' W 074°07'0 0.0
2015-Jul-28 14:33N 40°39' W 074°07'0 0.0
2015-Jul-28 13:34N 40°39' W 074°07'0 0.0
2015-Jul-28 12:34N 40°39' W 074°07'0 0.0
2015-Jul-28 11:34N 40°39' W 074°07'0 0.0
2015-Jul-28 10:33N 40°39' W 074°07'0 0.0
2015-Jul-28 09:34N 40°39' W 074°07'0 0.0
2015-Jul-28 08:34N 40°39' W 074°07'0 0.0
2015-Jul-28 07:33N 40°39' W 074°07'0 0.0
2015-Jul-28 06:33N 40°39' W 074°07'2 2.2
2015-Jul-28 05:34N 40°39' W 074°04'2 2.2
2015-Jul-28 04:33N 40°39' W 074°07'0 0.0
2015-Jul-28 03:33N 40°39' W 074°07'0 0.0
2015-Jul-28 02:33N 40°39' W 074°07'0 0.0
2015-Jul-28 01:33N 40°39' W 074°07'0 0.0
2015-Jul-28 00:34N 40°39' W 074°07'0 0.0
2015-Jul-27 23:34N 40°39' W 074°07'2 2.0
2015-Jul-27 22:29N 40°39' W 074°10'0 0.0
2015-Jul-27 21:34N 40°39' W 074°10'0 0.0
2015-Jul-27 20:34N 40°39' W 074°10'0 0.0
2015-Jul-27 19:34N 40°39' W 074°10'0 0.0
2015-Jul-27 18:33N 40°39' W 074°10'0 0.0
2015-Jul-27 17:32N 40°39' W 074°10'2 2.2
2015-Jul-27 16:33N 40°39' W 074°07'0 0.0
2015-Jul-27 15:33N 40°39' W 074°07'0 0.0
2015-Jul-27 14:27N 40°39' W 074°07'0 0.0
2015-Jul-27 13:32N 40°39' W 074°07'0 0.0
2015-Jul-27 12:31N 40°39' W 074°07'0 0.0
2015-Jul-27 10:29N 40°39' W 074°07'0 0.0
2015-Jul-27 09:04N 40°39' W 074°07'0 0.0
2015-Jul-27 07:14N 40°39' W 074°07'0 0.0
2015-Jul-27 06:30N 40°39' W 074°07'3 3.6
2015-Jul-27 05:33N 40°40' W 074°03'7 7.0
2015-Jul-27 04:33N 40°46' W 073°57'7 7.1
2015-Jul-27 03:32N 40°48' W 073°48'15 0.8
2015-Jul-26 07:21N 40°56' W 073°30'19 6.6
2015-Jul-26 04:29N 40°48' W 073°53'6 6.1
2015-Jul-26 03:33N 40°44' W 073°58'5 5.3
2015-Jul-26 02:33N 40°40' W 074°03'6 6.1
2015-Jul-26 01:33N 40°39' W 074°11'4 3.9
2015-Jul-26 00:33N 40°35' W 074°13'2 1.0
2015-Jul-25 22:33N 40°37' W 074°12'6 6.4
2015-Jul-25 21:33N 40°42' W 074°07'2 1.8
2015-Jul-25 20:33N 40°41' W 074°08'3 3.2
2015-Jul-25 19:33N 40°39' W 074°04'0 0.0
2015-Jul-25 18:33N 40°39' W 074°04'0 0.0
2015-Jul-25 17:33N 40°39' W 074°04'7 6.7
2015-Jul-25 16:33N 40°36' W 074°12'3 2.9
2015-Jul-25 15:33N 40°34' W 074°14'0 0.0
2015-Jul-25 14:33N 40°34' W 074°14'0 0.0
2015-Jul-25 13:29N 40°34' W 074°14'0 0.0
2015-Jul-25 12:32N 40°34' W 074°14'0 0.0
2015-Jul-25 11:33N 40°34' W 074°14'1 0.5
2015-Jul-25 10:25N 40°33' W 074°15'2 1.9
2015-Jul-25 09:31N 40°34' W 074°13'1 0.8
2015-Jul-25 08:31N 40°35' W 074°12'1 0.8
2015-Jul-25 07:26N 40°36' W 074°12'5 5.2
2015-Jul-25 06:33N 40°39' W 074°07'0 0.1
2015-Jul-25 05:34N 40°39' W 074°07'0 0.0
2015-Jul-25 04:33N 40°39' W 074°07'0 0.0
2015-Jul-25 03:33N 40°39' W 074°07'0 0.0
2015-Jul-25 02:33N 40°39' W 074°07'0 0.0
2015-Jul-25 01:33N 40°39' W 074°07'0 0.0
2015-Jul-25 00:33N 40°39' W 074°07'3 3.3
2015-Jul-24 23:33N 40°39' W 074°11'0 0.5
2015-Jul-24 22:33N 40°38' W 074°12'7 7.2
2015-Jul-24 21:33N 40°40' W 074°03'7 7.2
2015-Jul-24 20:33N 40°46' W 073°57'7 6.4
2015-Jul-24 19:31N 40°48' W 073°49'15 7.2
2015-Jul-24 17:24N 40°58' W 073°33'6 7.4
2015-Jul-24 16:33N 41°01' W 073°26'7 7.4
2015-Jul-24 15:33N 41°04' W 073°17'22 6.6
2015-Jul-24 12:16N 41°17' W 072°55'0 0.2
2015-Jul-24 11:34N 41°18' W 072°54'0 0.0
2015-Jul-24 10:33N 41°18' W 072°54'0 0.0
2015-Jul-24 09:33N 41°18' W 072°54'0 0.0
2015-Jul-24 08:33N 41°18' W 072°54'0 0.0
2015-Jul-24 07:34N 41°18' W 072°54'0 0.0
2015-Jul-24 06:33N 41°18' W 072°54'0 0.0
2015-Jul-24 05:33N 41°18' W 072°54'0 0.0
2015-Jul-24 04:33N 41°18' W 072°54'0 0.0
2015-Jul-24 03:33N 41°18' W 072°54'1 1.2
2015-Jul-24 02:34N 41°16' W 072°55'7 6.6
2015-Jul-24 01:34N 41°11' W 072°60'8 7.8
2015-Jul-24 00:33N 41°06' W 073°08'8 7.7
2015-Jul-23 23:33N 41°04' W 073°18'8 7.7
2015-Jul-23 22:32N 41°01' W 073°27'10 7.2
2015-Jul-23 21:08N 40°56' W 073°39'7 7.2
2015-Jul-23 20:13N 40°51' W 073°45'7 6.1
2015-Jul-23 19:08N 40°48' W 073°53'5 8.2
2015-Jul-23 18:33N 40°45' W 073°58'8 7.6
2015-Jul-23 17:33N 40°39' W 074°04'6 6.3
2015-Jul-23 16:33N 40°38' W 074°12'2 1.5
2015-Jul-23 15:33N 40°37' W 074°12'3 2.7
2015-Jul-23 14:33N 40°39' W 074°10'0 0.0
2015-Jul-23 13:33N 40°39' W 074°10'0 0.0
2015-Jul-23 12:33N 40°39' W 074°10'0 0.0
2015-Jul-23 11:33N 40°39' W 074°10'0 0.0
2015-Jul-23 10:33N 40°39' W 074°10'1 0.5
2015-Jul-23 09:33N 40°39' W 074°10'7 6.3
2015-Jul-23 08:26N 40°33' W 074°15'4 5.0
2015-Jul-23 07:33N 40°36' W 074°12'7 6.9
2015-Jul-23 06:33N 40°39' W 074°04'1 1.1
2015-Jul-23 05:33N 40°39' W 074°06'6 5.6
2015-Jul-23 04:33N 40°37' W 074°12'2 2.1
2015-Jul-23 03:33N 40°39' W 074°11'5 5.4
2015-Jul-23 02:33N 40°39' W 074°04'4 4.1
2015-Jul-23 01:33N 40°42' W 074°00'8 7.4
2015-Jul-23 00:30N 40°48' W 073°53'7 7.1
2015-Jul-22 23:33N 40°43' W 073°59'6 5.9
2015-Jul-22 22:33N 40°49' W 073°59'8 5.7
2015-Jul-22 21:10N 40°56' W 073°54'0 0.0
2015-Jul-22 20:27N 40°56' W 073°54'8 9.0
2015-Jul-22 19:33N 40°48' W 073°59'10 9.8
2015-Jul-22 18:33N 40°39' W 074°04'3 3.3
2015-Jul-22 17:33N 40°39' W 074°08'  

Dump ship's entire track history